createdAt,value
2018-02-20T00:02:01.043Z,2.40
2018-02-20T00:04:29.326Z,2.40
2018-02-20T00:06:57.574Z,2.40
2018-02-20T00:09:25.854Z,2.40
2018-02-20T00:11:54.145Z,2.40
2018-02-20T00:14:22.403Z,2.30
2018-02-20T00:16:51.590Z,2.30
2018-02-20T00:19:19.847Z,2.30
2018-02-20T00:21:48.136Z,2.30
2018-02-20T00:24:16.550Z,2.30
2018-02-20T00:26:44.842Z,2.30
2018-02-20T00:29:13.102Z,2.30
2018-02-20T00:31:41.371Z,2.20
2018-02-20T00:34:09.675Z,2.20
2018-02-20T00:36:37.945Z,2.10
2018-02-20T00:39:07.035Z,2.10
2018-02-20T00:41:35.345Z,2.10
2018-02-20T00:44:03.620Z,2.10
2018-02-20T00:46:31.885Z,2.00
2018-02-20T00:49:00.179Z,2.00
2018-02-20T00:51:28.435Z,2.00
2018-02-20T00:53:56.699Z,2.10
2018-02-20T00:56:24.991Z,2.00
2018-02-20T00:58:53.242Z,2.00
2018-02-20T01:01:21.540Z,2.00
2018-02-20T01:03:49.799Z,1.90
2018-02-20T01:06:18.104Z,2.00
2018-02-20T01:08:46.371Z,2.00
2018-02-20T01:11:14.630Z,1.90
2018-02-20T01:13:42.927Z,1.90
2018-02-20T01:16:11.191Z,1.90
2018-02-20T01:18:39.485Z,1.90
2018-02-20T01:21:07.755Z,1.90
2018-02-20T01:23:37.171Z,1.80
2018-02-20T01:26:06.340Z,1.80
2018-02-20T01:28:35.714Z,1.80
2018-02-20T01:31:03.974Z,1.80
2018-02-20T01:33:32.234Z,1.70
2018-02-20T01:36:00.541Z,1.70
2018-02-20T01:38:28.802Z,1.70
2018-02-20T01:40:57.091Z,1.70
2018-02-20T01:43:25.348Z,1.70
2018-02-20T01:45:52.868Z,1.70
2018-02-20T01:48:21.131Z,1.70
2018-02-20T01:51:01.210Z,1.70
2018-02-20T01:53:29.463Z,1.70
2018-02-20T01:55:57.730Z,1.60
2018-02-20T01:58:26.014Z,1.60
2018-02-20T02:00:54.287Z,1.60
2018-02-20T02:03:22.583Z,1.50
2018-02-20T02:05:50.897Z,1.50
2018-02-20T02:08:19.163Z,1.50
2018-02-20T02:10:47.416Z,1.40
2018-02-20T02:13:15.691Z,1.50
2018-02-20T02:15:43.986Z,1.40
2018-02-20T02:18:12.230Z,1.40
2018-02-20T02:20:40.500Z,1.40
2018-02-20T02:23:08.796Z,1.40
2018-02-20T02:25:37.057Z,1.40
2018-02-20T02:28:05.322Z,1.40
2018-02-20T02:30:33.610Z,1.40
2018-02-20T02:33:01.884Z,1.40
2018-02-20T02:35:30.152Z,1.40
2018-02-20T02:37:58.449Z,1.40
2018-02-20T02:40:26.717Z,1.40
2018-02-20T02:42:55.019Z,1.40
2018-02-20T02:45:23.283Z,1.30
2018-02-20T02:47:50.804Z,1.30
2018-02-20T02:50:19.064Z,1.30
2018-02-20T02:52:47.355Z,1.30
2018-02-20T02:55:14.851Z,1.30
2018-02-20T02:57:43.139Z,1.40
2018-02-20T03:00:11.399Z,1.30
2018-02-20T03:02:39.679Z,1.30
2018-02-20T03:05:07.948Z,1.20
2018-02-20T03:07:35.846Z,1.20
2018-02-20T03:10:05.315Z,1.30
2018-02-20T03:12:33.611Z,1.20
2018-02-20T03:15:01.928Z,1.20
2018-02-20T03:17:30.182Z,1.10
2018-02-20T03:19:58.434Z,1.10
2018-02-20T03:22:26.731Z,1.00
2018-02-20T03:24:55.041Z,1.00
2018-02-20T03:27:23.306Z,1.00
2018-02-20T03:29:51.576Z,1.00
2018-02-20T03:32:19.857Z,1.00
2018-02-20T03:34:48.142Z,1.00
2018-02-20T03:37:16.403Z,1.00
2018-02-20T03:39:44.690Z,1.00
2018-02-20T03:42:12.974Z,0.90
2018-02-20T03:44:41.234Z,0.90
2018-02-20T03:47:09.526Z,0.90
2018-02-20T03:49:37.787Z,0.90
2018-02-20T03:52:06.782Z,0.90
2018-02-20T03:54:36.099Z,0.80
2018-02-20T03:57:04.401Z,0.80
2018-02-20T03:59:32.704Z,0.80
2018-02-20T04:02:00.973Z,0.80
2018-02-20T04:04:29.262Z,0.70
2018-02-20T04:06:57.554Z,0.60
2018-02-20T04:09:25.817Z,0.60
2018-02-20T04:11:54.092Z,0.60
2018-02-20T04:14:22.392Z,0.70
2018-02-20T04:16:50.651Z,0.70
2018-02-20T04:19:18.946Z,0.60
2018-02-20T04:21:47.223Z,0.60
2018-02-20T04:24:15.480Z,0.60
2018-02-20T04:26:43.766Z,0.60
2018-02-20T04:29:12.054Z,0.60
2018-02-20T04:31:40.348Z,0.60
2018-02-20T04:34:07.842Z,0.60
2018-02-20T04:36:37.408Z,0.70
2018-02-20T04:39:06.422Z,0.60
2018-02-20T04:41:35.742Z,0.50
2018-02-20T04:44:04.006Z,0.50
2018-02-20T04:46:36.392Z,0.50
2018-02-20T04:49:05.318Z,0.50
2018-02-20T04:51:33.611Z,0.50
2018-02-20T04:54:01.893Z,0.50
2018-02-20T04:56:30.158Z,0.50
2018-02-20T04:58:58.450Z,0.60
2018-02-20T05:01:26.742Z,0.60
2018-02-20T05:03:55.046Z,0.50
2018-02-20T05:06:23.303Z,0.40
2018-02-20T05:08:51.561Z,0.40
2018-02-20T05:11:19.854Z,0.40
2018-02-20T05:13:48.117Z,0.40
2018-02-20T05:16:16.398Z,0.40
2018-02-20T05:18:44.660Z,0.40
2018-02-20T05:21:12.944Z,0.40
2018-02-20T05:23:41.227Z,0.30
2018-02-20T05:26:08.753Z,0.30
2018-02-20T05:28:37.050Z,0.30
2018-02-20T05:31:05.326Z,0.30
2018-02-20T05:33:33.617Z,0.30
2018-02-20T05:36:01.883Z,0.30
2018-02-20T05:38:30.145Z,0.30
2018-02-20T05:40:57.665Z,0.20
2018-02-20T05:43:25.935Z,0.20
2018-02-20T05:45:53.466Z,0.20
2018-02-20T05:48:21.725Z,0.10
2018-02-20T05:50:49.983Z,0.10
2018-02-20T05:53:18.273Z,0.10
2018-02-20T05:55:46.526Z,0.10
2018-02-20T05:58:14.845Z,0.20
2018-02-20T06:00:43.115Z,0.20
2018-02-20T06:03:11.379Z,0.20
2018-02-20T06:05:39.683Z,0.30
2018-02-20T06:08:07.946Z,0.30
2018-02-20T06:10:36.657Z,0.30
2018-02-20T06:13:05.974Z,0.20
2018-02-20T06:15:34.955Z,0.20
2018-02-20T06:18:03.246Z,0.20
2018-02-20T06:20:31.543Z,0.20
2018-02-20T06:22:59.811Z,0.10
2018-02-20T06:25:28.118Z,0.30
2018-02-20T06:27:56.378Z,0.30
2018-02-20T06:30:24.626Z,0.10
2018-02-20T06:32:52.924Z,0.00
2018-02-20T06:35:21.184Z,-0.10
2018-02-20T06:37:49.481Z,-0.10
2018-02-20T06:40:17.763Z,-0.10
2018-02-20T06:42:46.064Z,-0.10
2018-02-20T06:45:14.323Z,0.00
2018-02-20T06:47:42.619Z,0.00
2018-02-20T06:50:10.880Z,0.00
2018-02-20T06:52:39.170Z,0.00
2018-02-20T06:55:07.471Z,0.00
2018-02-20T06:57:36.881Z,-0.20
2018-02-20T07:00:05.995Z,-0.40
2018-02-20T07:02:35.083Z,-0.40
2018-02-20T07:05:03.377Z,-0.40
2018-02-20T07:07:31.635Z,-0.40
2018-02-20T07:09:59.931Z,-0.30
2018-02-20T07:12:28.223Z,-0.10
2018-02-20T07:14:56.518Z,-0.10
2018-02-20T07:17:24.770Z,0.00
2018-02-20T07:19:53.067Z,-0.10
2018-02-20T07:22:21.368Z,0.00
2018-02-20T07:24:49.679Z,-0.30
2018-02-20T07:27:17.934Z,-0.40
2018-02-20T07:29:46.221Z,-0.40
2018-02-20T07:32:14.521Z,-0.40
2018-02-20T07:34:42.802Z,-0.40
2018-02-20T07:37:11.088Z,-0.40
2018-02-20T07:39:39.342Z,-0.40
2018-02-20T07:42:07.633Z,-0.30
2018-02-20T07:44:36.789Z,-0.20
2018-02-20T07:47:05.866Z,-0.10
2018-02-20T07:49:34.959Z,-0.10
2018-02-20T07:52:03.222Z,0.10
2018-02-20T07:54:31.476Z,0.10
2018-02-20T07:56:59.758Z,0.00
2018-02-20T07:59:28.009Z,0.10
2018-02-20T08:01:56.301Z,0.10
2018-02-20T08:04:24.550Z,0.10
2018-02-20T08:06:52.845Z,0.10
2018-02-20T08:09:21.115Z,0.30
2018-02-20T08:11:49.367Z,0.30
2018-02-20T08:14:17.657Z,0.40
2018-02-20T08:16:52.755Z,0.40
2018-02-20T08:19:21.047Z,0.60
2018-02-20T08:21:49.351Z,0.50
2018-02-20T08:24:17.606Z,0.50
2018-02-20T08:26:48.147Z,0.70
2018-02-20T08:29:16.440Z,0.70
2018-02-20T08:31:44.060Z,0.70
2018-02-20T08:34:12.318Z,0.70
2018-02-20T08:36:40.578Z,0.80
2018-02-20T08:39:08.880Z,0.80
2018-02-20T08:41:37.147Z,0.90
2018-02-20T08:44:05.438Z,1.00
2018-02-20T08:46:33.702Z,1.10
2018-02-20T08:49:01.997Z,1.20
2018-02-20T08:51:30.254Z,1.10
2018-02-20T08:53:58.514Z,1.00
2018-02-20T08:56:26.812Z,1.10
2018-02-20T08:58:55.101Z,1.30
2018-02-20T09:01:23.387Z,1.30
2018-02-20T09:03:51.677Z,1.40
2018-02-20T09:06:19.974Z,1.40
2018-02-20T09:08:48.295Z,1.40
2018-02-20T09:11:16.562Z,1.40
2018-02-20T09:13:44.810Z,1.50
2018-02-20T09:16:13.109Z,1.60
2018-02-20T09:18:41.370Z,1.70
2018-02-20T09:21:09.638Z,1.80
2018-02-20T09:23:37.926Z,1.90
2018-02-20T09:26:12.156Z,2.00
2018-02-20T09:28:40.441Z,2.00
2018-02-20T09:31:08.731Z,2.10
2018-02-20T09:33:37.483Z,2.10
2018-02-20T09:36:06.673Z,2.30
2018-02-20T09:38:36.103Z,2.40
2018-02-20T09:41:04.394Z,2.60
2018-02-20T09:43:32.651Z,2.60
2018-02-20T09:46:00.923Z,2.60
2018-02-20T09:48:29.220Z,2.60
2018-02-20T09:50:56.739Z,2.50
2018-02-20T09:53:24.981Z,2.70
2018-02-20T09:55:53.363Z,2.80
2018-02-20T09:58:21.647Z,2.80
2018-02-20T10:00:49.907Z,2.90
2018-02-20T10:03:18.195Z,2.80
2018-02-20T10:05:46.441Z,2.70
2018-02-20T10:08:14.707Z,2.70
2018-02-20T10:10:42.978Z,2.70
2018-02-20T10:13:11.271Z,2.90
2018-02-20T10:15:39.526Z,3.00
2018-02-20T10:18:07.820Z,3.00
2018-02-20T10:20:37.214Z,3.00
2018-02-20T10:23:06.002Z,3.10
2018-02-20T10:25:34.978Z,3.10
2018-02-20T10:28:03.253Z,3.40
2018-02-20T10:30:31.510Z,3.30
2018-02-20T10:32:59.806Z,3.30
2018-02-20T10:35:28.055Z,3.40
2018-02-20T10:37:56.783Z,3.40
2018-02-20T10:40:25.060Z,3.50
2018-02-20T10:42:53.314Z,3.70
2018-02-20T10:45:21.597Z,3.90
2018-02-20T10:47:49.859Z,3.90
2018-02-20T10:50:18.128Z,4.00
2018-02-20T10:52:46.411Z,4.20
2018-02-20T10:55:14.680Z,4.10
2018-02-20T10:57:42.976Z,4.20
2018-02-20T11:00:11.240Z,4.40
2018-02-20T11:02:39.538Z,4.40
2018-02-20T11:05:07.803Z,4.50
2018-02-20T11:07:36.795Z,4.70
2018-02-20T11:10:05.708Z,4.70
2018-02-20T11:12:33.987Z,4.80
2018-02-20T11:15:02.257Z,5.00
2018-02-20T11:17:30.510Z,5.20
2018-02-20T11:19:58.782Z,5.10
2018-02-20T11:22:27.039Z,5.10
2018-02-20T11:24:54.534Z,5.10
2018-02-20T11:27:22.797Z,5.30
2018-02-20T11:29:51.060Z,5.50
2018-02-20T11:32:19.336Z,5.50
2018-02-20T11:34:47.607Z,5.70
2018-02-20T11:37:15.854Z,5.70
2018-02-20T11:39:44.127Z,5.70
2018-02-20T11:42:12.387Z,5.70
2018-02-20T11:44:40.685Z,5.70
2018-02-20T11:47:08.937Z,5.70
2018-02-20T11:49:37.187Z,6.00
2018-02-20T11:52:05.839Z,6.10
2018-02-20T11:54:35.412Z,6.20
2018-02-20T11:57:03.686Z,6.10
2018-02-20T11:59:31.952Z,6.00
2018-02-20T12:02:00.222Z,5.90
2018-02-20T12:04:28.494Z,5.80
2018-02-20T12:06:56.745Z,5.90
2018-02-20T12:09:25.042Z,5.90
2018-02-20T12:11:53.330Z,5.90
2018-02-20T12:14:21.591Z,6.00
2018-02-20T12:16:49.843Z,6.00
2018-02-20T12:19:18.140Z,6.00
2018-02-20T12:21:46.395Z,6.00
2018-02-20T12:24:13.918Z,6.00
2018-02-20T12:26:42.178Z,5.90
2018-02-20T12:29:10.474Z,6.00
2018-02-20T12:31:38.747Z,6.00
2018-02-20T12:34:07.042Z,5.90
2018-02-20T12:36:35.293Z,6.00
2018-02-20T12:39:03.554Z,6.00
2018-02-20T12:41:31.842Z,6.10
2018-02-20T12:44:00.100Z,6.20
2018-02-20T12:46:28.377Z,6.30
2018-02-20T12:48:56.635Z,6.40
2018-02-20T12:51:24.911Z,6.40
2018-02-20T12:53:53.183Z,6.40
2018-02-20T12:56:21.447Z,6.30
2018-02-20T12:58:49.735Z,6.20
2018-02-20T13:01:17.986Z,6.40
2018-02-20T13:03:46.262Z,6.50
2018-02-20T13:06:14.516Z,6.30
2018-02-20T13:08:42.819Z,6.30
2018-02-20T13:11:11.078Z,6.20
2018-02-20T13:13:39.334Z,6.20
2018-02-20T13:16:07.619Z,6.20
2018-02-20T13:18:37.230Z,6.20
2018-02-20T13:21:05.985Z,6.20
2018-02-20T13:23:35.060Z,6.10
2018-02-20T13:26:03.350Z,6.10
2018-02-20T13:28:31.601Z,6.30
2018-02-20T13:30:59.868Z,6.30
2018-02-20T13:33:28.142Z,6.20
2018-02-20T13:35:56.405Z,6.10
2018-02-20T13:38:24.687Z,6.10
2018-02-20T13:40:52.975Z,6.10
2018-02-20T13:43:21.222Z,6.10
2018-02-20T13:45:49.470Z,6.10
2018-02-20T13:48:17.734Z,6.10
2018-02-20T13:50:45.991Z,6.00
2018-02-20T13:53:14.257Z,6.00
2018-02-20T13:55:42.519Z,6.00
2018-02-20T13:58:13.942Z,6.10
2018-02-20T14:00:42.206Z,6.10
2018-02-20T14:03:10.470Z,6.20
2018-02-20T14:05:37.969Z,6.20
2018-02-20T14:08:07.182Z,6.20
2018-02-20T14:10:36.696Z,6.20
2018-02-20T14:13:05.547Z,6.20
2018-02-20T14:15:33.810Z,6.30
2018-02-20T14:18:02.090Z,6.40
2018-02-20T14:20:30.346Z,6.40
2018-02-20T14:22:58.640Z,6.30
2018-02-20T14:25:26.917Z,6.30
2018-02-20T14:27:55.200Z,6.40
2018-02-20T14:30:23.474Z,6.20
2018-02-20T14:32:51.734Z,6.10
2018-02-20T14:35:20.010Z,6.10
2018-02-20T14:37:48.257Z,6.30
2018-02-20T14:40:16.561Z,6.30
2018-02-20T14:42:44.814Z,6.30
2018-02-20T14:45:13.074Z,6.30
2018-02-20T14:47:41.354Z,6.30
2018-02-20T14:50:09.621Z,6.30
2018-02-20T14:52:37.122Z,6.30
2018-02-20T14:55:05.365Z,6.40
2018-02-20T14:57:33.642Z,6.40
2018-02-20T15:00:01.899Z,6.30
2018-02-20T15:02:30.165Z,6.10
2018-02-20T15:04:58.427Z,6.10
2018-02-20T15:07:26.738Z,6.00
2018-02-20T15:09:55.000Z,6.10
2018-02-20T15:12:23.263Z,6.10
2018-02-20T15:14:51.549Z,6.10
2018-02-20T15:17:19.823Z,6.10
2018-02-20T15:19:48.087Z,6.10
2018-02-20T15:22:16.362Z,5.90
2018-02-20T15:24:44.650Z,5.90
2018-02-20T15:27:12.930Z,5.90
2018-02-20T15:29:41.183Z,5.90
2018-02-20T15:32:09.462Z,5.80
2018-02-20T15:34:37.710Z,5.70
2018-02-20T15:37:06.699Z,5.70
2018-02-20T15:39:35.854Z,5.60
2018-02-20T15:42:05.262Z,5.60
2018-02-20T15:44:33.527Z,5.60
2018-02-20T15:47:01.818Z,5.50
2018-02-20T15:49:30.071Z,5.50
2018-02-20T15:51:58.328Z,5.40
2018-02-20T15:54:29.947Z,5.40
2018-02-20T15:56:58.225Z,5.40
2018-02-20T15:59:26.479Z,5.30
2018-02-20T16:01:54.767Z,5.30
2018-02-20T16:04:23.024Z,5.20
2018-02-20T16:06:51.295Z,5.00
2018-02-20T16:09:19.586Z,5.20
2018-02-20T16:11:47.853Z,5.10
2018-02-20T16:14:17.538Z,5.10
2018-02-20T16:16:45.830Z,5.00
2018-02-20T16:19:14.084Z,5.00
2018-02-20T16:21:42.383Z,5.00
2018-02-20T16:24:10.647Z,5.00
2018-02-20T16:26:38.938Z,5.00
2018-02-20T16:29:07.234Z,4.90
2018-02-20T16:31:36.699Z,4.90
2018-02-20T16:34:05.971Z,4.90
2018-02-20T16:36:35.045Z,4.90
2018-02-20T16:39:03.327Z,4.80
2018-02-20T16:41:31.615Z,4.70
2018-02-20T16:43:59.878Z,4.60
2018-02-20T16:46:28.155Z,4.70
2018-02-20T16:48:56.431Z,4.70
2018-02-20T16:51:24.699Z,4.60
2018-02-20T16:53:52.950Z,4.70
2018-02-20T16:56:21.233Z,4.70
2018-02-20T16:58:49.483Z,4.60
2018-02-20T17:01:17.775Z,4.40
2018-02-20T17:03:46.031Z,4.40
2018-02-20T17:06:14.341Z,4.30
2018-02-20T17:08:42.686Z,4.30
2018-02-20T17:11:10.974Z,4.30
2018-02-20T17:13:39.239Z,4.30
2018-02-20T17:16:07.534Z,4.20
2018-02-20T17:18:36.950Z,4.20
2018-02-20T17:21:04.447Z,4.10
2018-02-20T17:23:32.754Z,4.10
2018-02-20T17:26:01.001Z,4.00
2018-02-20T17:28:29.262Z,4.00
2018-02-20T17:30:57.659Z,3.90
2018-02-20T17:33:25.922Z,3.90
2018-02-20T17:35:54.178Z,3.90
2018-02-20T17:38:22.484Z,3.90
2018-02-20T17:40:50.738Z,3.80
2018-02-20T17:43:18.986Z,3.80
2018-02-20T17:45:47.280Z,3.80
2018-02-20T17:48:15.546Z,3.80
2018-02-20T17:50:43.074Z,3.80
2018-02-20T17:53:11.368Z,3.80
2018-02-20T17:55:39.640Z,3.70
2018-02-20T17:58:07.930Z,3.70
2018-02-20T18:00:37.005Z,3.60
2018-02-20T18:03:05.682Z,3.60
2018-02-20T18:05:33.938Z,3.50
2018-02-20T18:08:02.226Z,3.50
2018-02-20T18:10:30.483Z,3.40
2018-02-20T18:12:58.751Z,3.50
2018-02-20T18:15:27.037Z,3.40
2018-02-20T18:17:55.290Z,3.50
2018-02-20T18:20:23.582Z,3.40
2018-02-20T18:22:51.839Z,3.40
2018-02-20T18:25:20.126Z,3.30
2018-02-20T18:27:48.382Z,3.30
2018-02-20T18:30:16.682Z,3.50
2018-02-20T18:32:44.967Z,3.40
2018-02-20T18:35:13.218Z,3.40
2018-02-20T18:37:40.743Z,3.40
2018-02-20T18:40:08.994Z,3.20
2018-02-20T18:42:40.319Z,3.20
2018-02-20T18:45:08.581Z,3.10
2018-02-20T18:47:36.958Z,3.10
2018-02-20T18:50:05.782Z,3.10
2018-02-20T18:52:34.070Z,3.20
2018-02-20T18:55:02.323Z,3.20
2018-02-20T18:57:30.619Z,3.10
2018-02-20T18:59:58.878Z,2.90
2018-02-20T19:02:27.177Z,3.00
2018-02-20T19:04:55.443Z,3.00
2018-02-20T19:07:23.704Z,2.90
2018-02-20T19:09:51.994Z,3.10
2018-02-20T19:12:20.251Z,3.00
2018-02-20T19:14:48.539Z,2.90
2018-02-20T19:17:18.822Z,3.00
2018-02-20T19:19:47.078Z,3.00
2018-02-20T19:22:15.358Z,3.00
2018-02-20T19:24:43.662Z,3.00
2018-02-20T19:27:11.965Z,2.90
2018-02-20T19:29:40.235Z,2.90
2018-02-20T19:32:08.487Z,2.80
2018-02-20T19:34:36.796Z,2.70
2018-02-20T19:37:06.007Z,2.70
2018-02-20T19:39:34.991Z,2.60
2018-02-20T19:42:03.249Z,2.60
2018-02-20T19:44:31.527Z,2.50
2018-02-20T19:46:59.785Z,2.50
2018-02-20T19:49:28.055Z,2.50
2018-02-20T19:51:56.335Z,2.40
2018-02-20T19:54:24.630Z,2.50
2018-02-20T19:56:52.901Z,2.60
2018-02-20T19:59:21.166Z,2.70
2018-02-20T20:01:49.422Z,2.70
2018-02-20T20:04:17.699Z,2.50
2018-02-20T20:06:45.975Z,2.60
2018-02-20T20:09:14.268Z,2.50
2018-02-20T20:11:42.553Z,2.40
2018-02-20T20:14:10.805Z,2.40
2018-02-20T20:16:39.086Z,2.30
2018-02-20T20:19:07.351Z,2.30
2018-02-20T20:21:36.622Z,2.40
2018-02-20T20:24:04.114Z,2.40
2018-02-20T20:26:32.412Z,2.50
2018-02-20T20:29:00.673Z,2.40
2018-02-20T20:31:28.942Z,2.30
2018-02-20T20:33:57.206Z,2.20
2018-02-20T20:36:25.470Z,2.20
2018-02-20T20:38:53.748Z,2.10
2018-02-20T20:41:21.251Z,2.10
2018-02-20T20:43:49.517Z,2.10
2018-02-20T20:46:17.774Z,2.10
2018-02-20T20:48:46.082Z,2.10
2018-02-20T20:51:14.335Z,2.10
2018-02-20T20:53:42.620Z,2.10
2018-02-20T20:56:10.898Z,2.30
2018-02-20T20:58:39.147Z,2.30
2018-02-20T21:01:07.415Z,2.30
2018-02-20T21:03:36.692Z,2.30
2018-02-20T21:06:06.088Z,2.20
2018-02-20T21:08:35.117Z,2.20
2018-02-20T21:11:03.400Z,2.20
2018-02-20T21:13:31.686Z,2.00
2018-02-20T21:15:59.946Z,2.00
2018-02-20T21:18:28.222Z,2.00
2018-02-20T21:20:56.486Z,1.90
2018-02-20T21:23:24.757Z,1.90
2018-02-20T21:25:53.038Z,2.00
2018-02-20T21:28:21.293Z,2.00
2018-02-20T21:30:49.573Z,2.00
2018-02-20T21:33:17.835Z,1.90
2018-02-20T21:35:46.119Z,1.80
2018-02-20T21:38:14.386Z,1.80
2018-02-20T21:40:42.667Z,1.90
2018-02-20T21:43:10.940Z,1.80
2018-02-20T21:45:39.241Z,1.70
2018-02-20T21:48:07.499Z,1.60
2018-02-20T21:50:36.674Z,1.60
2018-02-20T21:53:04.834Z,1.60
2018-02-20T21:55:33.090Z,1.70
2018-02-20T21:58:01.391Z,1.60
2018-02-20T22:00:29.655Z,1.60
2018-02-20T22:02:57.912Z,1.60
2018-02-20T22:05:26.174Z,1.60
2018-02-20T22:07:54.423Z,1.60
2018-02-20T22:10:22.681Z,1.60
2018-02-20T22:12:50.942Z,1.60
2018-02-20T22:15:19.211Z,1.60
2018-02-20T22:17:47.482Z,1.60
2018-02-20T22:20:15.774Z,1.60
2018-02-20T22:22:43.277Z,1.50
2018-02-20T22:25:11.539Z,1.70
2018-02-20T22:27:39.802Z,1.60
2018-02-20T22:30:08.049Z,1.60
2018-02-20T22:32:37.013Z,1.70
2018-02-20T22:35:05.690Z,1.60
2018-02-20T22:37:33.954Z,1.50
2018-02-20T22:40:02.217Z,1.50
2018-02-20T22:42:30.506Z,1.60
2018-02-20T22:44:58.763Z,1.50
2018-02-20T22:47:27.027Z,1.50
2018-02-20T22:49:55.273Z,1.50
2018-02-20T22:52:23.559Z,1.60
2018-02-20T22:54:51.810Z,1.70
2018-02-20T22:57:20.097Z,1.60
2018-02-20T22:59:48.355Z,1.60
2018-02-20T23:02:16.632Z,1.50
2018-02-20T23:04:44.897Z,1.40
2018-02-20T23:07:13.186Z,1.40
2018-02-20T23:09:41.442Z,1.40
2018-02-20T23:12:09.722Z,1.40
2018-02-20T23:14:37.993Z,1.30
2018-02-20T23:17:07.170Z,1.30
2018-02-20T23:19:35.888Z,1.40
2018-02-20T23:22:04.776Z,1.50
2018-02-20T23:24:33.051Z,1.60
2018-02-20T23:27:01.314Z,1.50
2018-02-20T23:29:29.599Z,1.40
2018-02-20T23:31:57.875Z,1.20
2018-02-20T23:34:26.162Z,1.40
2018-02-20T23:36:54.422Z,1.30
2018-02-20T23:39:22.690Z,1.20
2018-02-20T23:41:50.954Z,1.30
2018-02-20T23:44:19.252Z,1.30
2018-02-20T23:46:47.514Z,1.20
2018-02-20T23:49:15.774Z,1.10
2018-02-20T23:51:43.291Z,1.10
2018-02-20T23:54:11.571Z,1.20
2018-02-20T23:56:39.058Z,1.10
2018-02-20T23:59:07.350Z,1.10
